sensor_id;sensor_type;location;lat;lon;timestamp;P1;durP1;ratioP1;P2;durP2;ratioP2
66667;SDS011;57205;51.438;-2.006;2023-06-22T00:01:48;12.57;;;8.07;;
66667;SDS011;57205;51.438;-2.006;2023-06-22T00:04:14;10.98;;;6.50;;
66667;SDS011;57205;51.438;-2.006;2023-06-22T00:06:39;12.32;;;6.88;;
66667;SDS011;57205;51.438;-2.006;2023-06-22T00:09:05;10.80;;;6.53;;
66667;SDS011;57205;51.438;-2.006;2023-06-22T00:11:32;11.70;;;6.93;;
66667;SDS011;57205;51.438;-2.006;2023-06-22T00:14:00;12.07;;;6.68;;
66667;SDS011;57205;51.438;-2.006;2023-06-22T00:16:25;12.25;;;7.25;;
66667;SDS011;57205;51.438;-2.006;2023-06-22T00:18:50;10.60;;;6.22;;
66667;SDS011;57205;51.438;-2.006;2023-06-22T00:21:16;11.88;;;6.45;;
66667;SDS011;57205;51.438;-2.006;2023-06-22T00:23:45;9.75;;;5.45;;
66667;SDS011;57205;51.438;-2.006;2023-06-22T00:26:11;10.57;;;6.72;;
66667;SDS011;57205;51.438;-2.006;2023-06-22T00:28:36;13.43;;;7.40;;
66667;SDS011;57205;51.438;-2.006;2023-06-22T00:31:02;11.75;;;6.75;;
66667;SDS011;57205;51.438;-2.006;2023-06-22T00:33:28;12.98;;;7.18;;
66667;SDS011;57205;51.438;-2.006;2023-06-22T00:35:53;13.55;;;7.05;;
66667;SDS011;57205;51.438;-2.006;2023-06-22T00:38:19;9.18;;;6.35;;
66667;SDS011;57205;51.438;-2.006;2023-06-22T00:40:45;12.60;;;6.75;;
66667;SDS011;57205;51.438;-2.006;2023-06-22T00:43:11;12.75;;;6.28;;
66667;SDS011;57205;51.438;-2.006;2023-06-22T00:45:36;12.88;;;6.95;;
66667;SDS011;57205;51.438;-2.006;2023-06-22T00:48:03;10.10;;;6.65;;
66667;SDS011;57205;51.438;-2.006;2023-06-22T00:50:30;13.93;;;7.22;;
66667;SDS011;57205;51.438;-2.006;2023-06-22T00:53:03;12.63;;;7.18;;
66667;SDS011;57205;51.438;-2.006;2023-06-22T00:55:35;10.80;;;6.90;;
66667;SDS011;57205;51.438;-2.006;2023-06-22T00:58:02;12.15;;;7.22;;
66667;SDS011;57205;51.438;-2.006;2023-06-22T01:00:30;13.93;;;7.40;;
66667;SDS011;57205;51.438;-2.006;2023-06-22T01:02:57;13.10;;;8.15;;
66667;SDS011;57205;51.438;-2.006;2023-06-22T01:05:23;14.88;;;7.93;;
66667;SDS011;57205;51.438;-2.006;2023-06-22T01:10:16;11.38;;;7.07;;
66667;SDS011;57205;51.438;-2.006;2023-06-22T01:12:53;13.05;;;7.15;;
66667;SDS011;57205;51.438;-2.006;2023-06-22T01:17:54;12.80;;;7.85;;
66667;SDS011;57205;51.438;-2.006;2023-06-22T01:20:22;17.30;;;7.93;;
66667;SDS011;57205;51.438;-2.006;2023-06-22T01:22:57;15.50;;;8.40;;
66667;SDS011;57205;51.438;-2.006;2023-06-22T01:25:36;13.85;;;7.43;;
66667;SDS011;57205;51.438;-2.006;2023-06-22T01:31:06;11.50;;;7.75;;
66667;SDS011;57205;51.438;-2.006;2023-06-22T01:33:34;13.88;;;8.43;;
66667;SDS011;57205;51.438;-2.006;2023-06-22T01:36:03;11.57;;;7.50;;
66667;SDS011;57205;51.438;-2.006;2023-06-22T01:38:29;15.65;;;8.52;;
66667;SDS011;57205;51.438;-2.006;2023-06-22T01:40:57;15.18;;;8.45;;
66667;SDS011;57205;51.438;-2.006;2023-06-22T01:43:24;13.25;;;7.18;;
66667;SDS011;57205;51.438;-2.006;2023-06-22T01:45:51;11.63;;;7.40;;
66667;SDS011;57205;51.438;-2.006;2023-06-22T01:48:17;14.32;;;6.97;;
66667;SDS011;57205;51.438;-2.006;2023-06-22T01:50:44;11.25;;;7.28;;
66667;SDS011;57205;51.438;-2.006;2023-06-22T01:53:10;12.90;;;6.38;;
66667;SDS011;57205;51.438;-2.006;2023-06-22T01:55:36;13.18;;;7.57;;
66667;SDS011;57205;51.438;-2.006;2023-06-22T01:58:01;14.88;;;6.95;;
66667;SDS011;57205;51.438;-2.006;2023-06-22T02:00:26;13.32;;;7.40;;
66667;SDS011;57205;51.438;-2.006;2023-06-22T02:02:58;13.65;;;7.13;;
66667;SDS011;57205;51.438;-2.006;2023-06-22T02:05:31;14.02;;;7.10;;
66667;SDS011;57205;51.438;-2.006;2023-06-22T02:10:29;13.15;;;7.45;;
66667;SDS011;57205;51.438;-2.006;2023-06-22T02:12:57;15.25;;;7.90;;
66667;SDS011;57205;51.438;-2.006;2023-06-22T02:15:23;12.65;;;7.22;;
66667;SDS011;57205;51.438;-2.006;2023-06-22T02:17:50;11.35;;;6.32;;
66667;SDS011;57205;51.438;-2.006;2023-06-22T02:20:16;14.45;;;7.18;;
66667;SDS011;57205;51.438;-2.006;2023-06-22T02:22:41;15.95;;;7.80;;
66667;SDS011;57205;51.438;-2.006;2023-06-22T02:25:07;12.68;;;7.60;;
66667;SDS011;57205;51.438;-2.006;2023-06-22T02:27:33;12.70;;;7.88;;
66667;SDS011;57205;51.438;-2.006;2023-06-22T02:29:58;14.27;;;8.15;;
66667;SDS011;57205;51.438;-2.006;2023-06-22T02:32:23;13.45;;;8.10;;
66667;SDS011;57205;51.438;-2.006;2023-06-22T02:34:49;15.50;;;8.43;;
66667;SDS011;57205;51.438;-2.006;2023-06-22T02:37:14;13.70;;;8.35;;
66667;SDS011;57205;51.438;-2.006;2023-06-22T02:39:40;13.65;;;8.05;;
66667;SDS011;57205;51.438;-2.006;2023-06-22T02:42:06;15.60;;;8.05;;
66667;SDS011;57205;51.438;-2.006;2023-06-22T02:44:31;12.02;;;7.93;;
66667;SDS011;57205;51.438;-2.006;2023-06-22T02:46:57;13.77;;;8.07;;
66667;SDS011;57205;51.438;-2.006;2023-06-22T02:49:23;14.23;;;7.55;;
66667;SDS011;57205;51.438;-2.006;2023-06-22T02:51:48;13.27;;;7.00;;
66667;SDS011;57205;51.438;-2.006;2023-06-22T02:54:14;14.65;;;8.40;;
66667;SDS011;57205;51.438;-2.006;2023-06-22T02:56:39;15.63;;;9.18;;
66667;SDS011;57205;51.438;-2.006;2023-06-22T02:59:05;15.57;;;8.32;;
66667;SDS011;57205;51.438;-2.006;2023-06-22T03:01:31;14.50;;;8.60;;
66667;SDS011;57205;51.438;-2.006;2023-06-22T03:04:02;15.20;;;9.60;;
66667;SDS011;57205;51.438;-2.006;2023-06-22T03:06:28;16.33;;;8.80;;
66667;SDS011;57205;51.438;-2.006;2023-06-22T03:08:59;14.85;;;9.23;;
66667;SDS011;57205;51.438;-2.006;2023-06-22T03:11:26;16.65;;;8.60;;
66667;SDS011;57205;51.438;-2.006;2023-06-22T03:13:52;17.35;;;9.07;;
66667;SDS011;57205;51.438;-2.006;2023-06-22T03:16:18;15.68;;;9.93;;
66667;SDS011;57205;51.438;-2.006;2023-06-22T03:18:44;14.27;;;8.88;;
66667;SDS011;57205;51.438;-2.006;2023-06-22T03:21:10;12.73;;;8.20;;
66667;SDS011;57205;51.438;-2.006;2023-06-22T03:23:35;13.82;;;8.77;;
66667;SDS011;57205;51.438;-2.006;2023-06-22T03:26:01;15.82;;;9.55;;
66667;SDS011;57205;51.438;-2.006;2023-06-22T03:28:27;17.77;;;10.50;;
66667;SDS011;57205;51.438;-2.006;2023-06-22T03:30:52;15.55;;;8.73;;
66667;SDS011;57205;51.438;-2.006;2023-06-22T03:33:17;16.88;;;9.15;;
66667;SDS011;57205;51.438;-2.006;2023-06-22T03:35:43;15.80;;;8.00;;
66667;SDS011;57205;51.438;-2.006;2023-06-22T03:38:08;15.45;;;7.47;;
66667;SDS011;57205;51.438;-2.006;2023-06-22T03:40:33;14.77;;;7.88;;
66667;SDS011;57205;51.438;-2.006;2023-06-22T03:42:59;16.58;;;8.00;;
66667;SDS011;57205;51.438;-2.006;2023-06-22T03:45:24;14.45;;;8.05;;
66667;SDS011;57205;51.438;-2.006;2023-06-22T03:47:50;20.63;;;8.45;;
66667;SDS011;57205;51.438;-2.006;2023-06-22T03:50:15;17.05;;;8.20;;
66667;SDS011;57205;51.438;-2.006;2023-06-22T03:52:40;16.00;;;7.95;;
66667;SDS011;57205;51.438;-2.006;2023-06-22T03:55:06;13.15;;;7.85;;
66667;SDS011;57205;51.438;-2.006;2023-06-22T03:57:32;14.38;;;8.93;;
66667;SDS011;57205;51.438;-2.006;2023-06-22T03:59:58;12.93;;;7.93;;
66667;SDS011;57205;51.438;-2.006;2023-06-22T04:02:24;16.48;;;8.75;;
66667;SDS011;57205;51.438;-2.006;2023-06-22T04:04:49;12.98;;;7.47;;
66667;SDS011;57205;51.438;-2.006;2023-06-22T04:07:15;11.50;;;7.80;;
66667;SDS011;57205;51.438;-2.006;2023-06-22T04:09:40;14.13;;;7.72;;
66667;SDS011;57205;51.438;-2.006;2023-06-22T04:12:06;14.05;;;8.48;;
66667;SDS011;57205;51.438;-2.006;2023-06-22T04:14:32;18.27;;;8.13;;
66667;SDS011;57205;51.438;-2.006;2023-06-22T04:16:57;14.68;;;7.13;;
66667;SDS011;57205;51.438;-2.006;2023-06-22T04:19:24;14.75;;;9.00;;
66667;SDS011;57205;51.438;-2.006;2023-06-22T04:21:50;36.58;;;21.98;;
66667;SDS011;57205;51.438;-2.006;2023-06-22T04:24:15;16.02;;;9.95;;
66667;SDS011;57205;51.438;-2.006;2023-06-22T04:26:42;12.85;;;7.70;;
66667;SDS011;57205;51.438;-2.006;2023-06-22T04:29:10;14.20;;;7.60;;
66667;SDS011;57205;51.438;-2.006;2023-06-22T04:31:35;17.77;;;9.75;;
66667;SDS011;57205;51.438;-2.006;2023-06-22T04:34:02;15.63;;;8.50;;
66667;SDS011;57205;51.438;-2.006;2023-06-22T04:39:03;13.57;;;7.65;;
66667;SDS011;57205;51.438;-2.006;2023-06-22T04:41:30;14.88;;;7.88;;
66667;SDS011;57205;51.438;-2.006;2023-06-22T04:44:06;13.77;;;7.40;;
66667;SDS011;57205;51.438;-2.006;2023-06-22T04:46:32;15.50;;;8.52;;
66667;SDS011;57205;51.438;-2.006;2023-06-22T04:48:59;14.95;;;9.57;;
66667;SDS011;57205;51.438;-2.006;2023-06-22T04:51:24;18.80;;;9.68;;
66667;SDS011;57205;51.438;-2.006;2023-06-22T04:53:55;18.85;;;11.10;;
66667;SDS011;57205;51.438;-2.006;2023-06-22T04:56:25;18.75;;;9.65;;
66667;SDS011;57205;51.438;-2.006;2023-06-22T04:58:53;15.18;;;8.88;;
66667;SDS011;57205;51.438;-2.006;2023-06-22T05:01:20;11.85;;;7.53;;
66667;SDS011;57205;51.438;-2.006;2023-06-22T05:03:47;19.52;;;8.88;;
66667;SDS011;57205;51.438;-2.006;2023-06-22T05:06:13;18.00;;;8.98;;
66667;SDS011;57205;51.438;-2.006;2023-06-22T05:08:39;15.05;;;8.32;;
66667;SDS011;57205;51.438;-2.006;2023-06-22T05:11:05;15.55;;;9.35;;
66667;SDS011;57205;51.438;-2.006;2023-06-22T05:13:31;13.82;;;8.20;;
66667;SDS011;57205;51.438;-2.006;2023-06-22T05:15:57;15.55;;;8.35;;
66667;SDS011;57205;51.438;-2.006;2023-06-22T05:18:29;17.25;;;9.77;;
66667;SDS011;57205;51.438;-2.006;2023-06-22T05:20:55;16.30;;;9.38;;
66667;SDS011;57205;51.438;-2.006;2023-06-22T05:23:21;15.60;;;9.35;;
66667;SDS011;57205;51.438;-2.006;2023-06-22T05:25:46;14.63;;;9.60;;
66667;SDS011;57205;51.438;-2.006;2023-06-22T05:28:12;16.73;;;9.93;;
66667;SDS011;57205;51.438;-2.006;2023-06-22T05:30:37;16.98;;;8.95;;
66667;SDS011;57205;51.438;-2.006;2023-06-22T05:33:03;17.05;;;8.13;;
66667;SDS011;57205;51.438;-2.006;2023-06-22T05:35:29;14.15;;;8.90;;
66667;SDS011;57205;51.438;-2.006;2023-06-22T05:37:55;15.80;;;9.13;;
66667;SDS011;57205;51.438;-2.006;2023-06-22T05:40:21;12.27;;;7.43;;
66667;SDS011;57205;51.438;-2.006;2023-06-22T05:42:47;12.90;;;8.45;;
66667;SDS011;57205;51.438;-2.006;2023-06-22T05:45:12;14.82;;;9.32;;
66667;SDS011;57205;51.438;-2.006;2023-06-22T05:47:38;19.60;;;9.80;;
66667;SDS011;57205;51.438;-2.006;2023-06-22T05:50:04;17.08;;;10.15;;
66667;SDS011;57205;51.438;-2.006;2023-06-22T05:52:32;15.00;;;9.60;;
66667;SDS011;57205;51.438;-2.006;2023-06-22T05:54:57;17.27;;;11.10;;
66667;SDS011;57205;51.438;-2.006;2023-06-22T05:57:23;16.92;;;9.00;;
66667;SDS011;57205;51.438;-2.006;2023-06-22T05:59:49;14.32;;;8.48;;
66667;SDS011;57205;51.438;-2.006;2023-06-22T06:02:14;14.57;;;8.90;;
66667;SDS011;57205;51.438;-2.006;2023-06-22T06:04:39;14.50;;;8.57;;
66667;SDS011;57205;51.438;-2.006;2023-06-22T06:07:05;12.73;;;7.43;;
66667;SDS011;57205;51.438;-2.006;2023-06-22T06:09:30;13.27;;;7.57;;
66667;SDS011;57205;51.438;-2.006;2023-06-22T06:11:56;12.52;;;7.63;;
66667;SDS011;57205;51.438;-2.006;2023-06-22T06:14:21;12.70;;;7.88;;
66667;SDS011;57205;51.438;-2.006;2023-06-22T06:16:48;11.10;;;7.05;;
66667;SDS011;57205;51.438;-2.006;2023-06-22T06:19:14;49.05;;;40.97;;
66667;SDS011;57205;51.438;-2.006;2023-06-22T06:21:40;12.00;;;8.00;;
66667;SDS011;57205;51.438;-2.006;2023-06-22T06:24:05;15.38;;;8.27;;
66667;SDS011;57205;51.438;-2.006;2023-06-22T06:26:31;11.63;;;7.47;;
66667;SDS011;57205;51.438;-2.006;2023-06-22T06:28:59;12.93;;;8.02;;
66667;SDS011;57205;51.438;-2.006;2023-06-22T06:31:25;10.88;;;7.40;;
66667;SDS011;57205;51.438;-2.006;2023-06-22T06:33:53;11.57;;;7.85;;
66667;SDS011;57205;51.438;-2.006;2023-06-22T06:36:19;11.38;;;7.35;;
66667;SDS011;57205;51.438;-2.006;2023-06-22T06:38:44;13.70;;;8.43;;
66667;SDS011;57205;51.438;-2.006;2023-06-22T06:41:15;10.85;;;7.55;;
66667;SDS011;57205;51.438;-2.006;2023-06-22T06:43:43;10.55;;;7.53;;
66667;SDS011;57205;51.438;-2.006;2023-06-22T06:46:08;12.60;;;8.57;;
66667;SDS011;57205;51.438;-2.006;2023-06-22T06:48:34;11.95;;;8.15;;
66667;SDS011;57205;51.438;-2.006;2023-06-22T06:51:00;12.10;;;8.30;;
66667;SDS011;57205;51.438;-2.006;2023-06-22T06:53:25;11.88;;;8.25;;
66667;SDS011;57205;51.438;-2.006;2023-06-22T06:55:51;15.38;;;8.25;;
66667;SDS011;57205;51.438;-2.006;2023-06-22T06:58:16;11.50;;;8.38;;
66667;SDS011;57205;51.438;-2.006;2023-06-22T07:00:42;10.88;;;7.95;;
66667;SDS011;57205;51.438;-2.006;2023-06-22T07:03:08;9.77;;;7.47;;
66667;SDS011;57205;51.438;-2.006;2023-06-22T07:05:34;15.63;;;7.72;;
66667;SDS011;57205;51.438;-2.006;2023-06-22T07:08:00;11.00;;;6.57;;
66667;SDS011;57205;51.438;-2.006;2023-06-22T07:10:26;14.25;;;7.38;;
66667;SDS011;57205;51.438;-2.006;2023-06-22T07:12:51;10.65;;;6.68;;
66667;SDS011;57205;51.438;-2.006;2023-06-22T07:15:17;10.60;;;6.75;;
66667;SDS011;57205;51.438;-2.006;2023-06-22T07:17:43;11.93;;;6.78;;
66667;SDS011;57205;51.438;-2.006;2023-06-22T07:20:10;10.82;;;7.10;;
66667;SDS011;57205;51.438;-2.006;2023-06-22T07:22:39;10.15;;;6.55;;
66667;SDS011;57205;51.438;-2.006;2023-06-22T07:25:06;10.80;;;6.82;;
66667;SDS011;57205;51.438;-2.006;2023-06-22T07:27:36;12.43;;;6.82;;
66667;SDS011;57205;51.438;-2.006;2023-06-22T07:30:08;9.20;;;7.40;;
66667;SDS011;57205;51.438;-2.006;2023-06-22T07:32:34;9.88;;;5.40;;
66667;SDS011;57205;51.438;-2.006;2023-06-22T07:34:59;10.07;;;5.75;;
66667;SDS011;57205;51.438;-2.006;2023-06-22T07:37:24;9.82;;;4.88;;
66667;SDS011;57205;51.438;-2.006;2023-06-22T07:39:52;9.95;;;5.93;;
66667;SDS011;57205;51.438;-2.006;2023-06-22T07:42:18;9.38;;;5.70;;
66667;SDS011;57205;51.438;-2.006;2023-06-22T07:44:44;11.00;;;6.22;;
66667;SDS011;57205;51.438;-2.006;2023-06-22T07:47:09;8.52;;;5.57;;
66667;SDS011;57205;51.438;-2.006;2023-06-22T07:49:35;9.25;;;6.38;;
66667;SDS011;57205;51.438;-2.006;2023-06-22T07:52:00;10.25;;;6.45;;
66667;SDS011;57205;51.438;-2.006;2023-06-22T07:54:27;9.73;;;6.13;;
66667;SDS011;57205;51.438;-2.006;2023-06-22T07:56:52;9.23;;;5.85;;
66667;SDS011;57205;51.438;-2.006;2023-06-22T07:59:17;7.78;;;5.68;;
66667;SDS011;57205;51.438;-2.006;2023-06-22T08:01:43;8.65;;;5.78;;
66667;SDS011;57205;51.438;-2.006;2023-06-22T08:04:08;7.75;;;5.60;;
66667;SDS011;57205;51.438;-2.006;2023-06-22T08:06:34;15.10;;;5.78;;
66667;SDS011;57205;51.438;-2.006;2023-06-22T08:08:59;7.50;;;5.32;;
66667;SDS011;57205;51.438;-2.006;2023-06-22T08:11:25;9.15;;;5.90;;
66667;SDS011;57205;51.438;-2.006;2023-06-22T08:13:51;10.57;;;5.35;;
66667;SDS011;57205;51.438;-2.006;2023-06-22T08:16:17;9.50;;;5.88;;
66667;SDS011;57205;51.438;-2.006;2023-06-22T08:18:43;9.90;;;5.88;;
66667;SDS011;57205;51.438;-2.006;2023-06-22T08:21:08;9.18;;;5.28;;
66667;SDS011;57205;51.438;-2.006;2023-06-22T08:23:33;10.77;;;5.45;;
66667;SDS011;57205;51.438;-2.006;2023-06-22T08:26:00;9.13;;;5.38;;
66667;SDS011;57205;51.438;-2.006;2023-06-22T08:28:25;28.75;;;8.50;;
66667;SDS011;57205;51.438;-2.006;2023-06-22T08:30:51;10.30;;;5.57;;
66667;SDS011;57205;51.438;-2.006;2023-06-22T08:33:16;8.15;;;4.97;;
66667;SDS011;57205;51.438;-2.006;2023-06-22T08:35:42;6.90;;;4.53;;
66667;SDS011;57205;51.438;-2.006;2023-06-22T08:38:08;8.85;;;5.38;;
66667;SDS011;57205;51.438;-2.006;2023-06-22T08:40:34;6.28;;;4.65;;
66667;SDS011;57205;51.438;-2.006;2023-06-22T08:42:59;7.35;;;4.93;;
66667;SDS011;57205;51.438;-2.006;2023-06-22T08:45:24;7.47;;;4.55;;
66667;SDS011;57205;51.438;-2.006;2023-06-22T08:47:50;8.00;;;5.03;;
66667;SDS011;57205;51.438;-2.006;2023-06-22T08:50:15;9.65;;;4.88;;
66667;SDS011;57205;51.438;-2.006;2023-06-22T08:52:41;7.32;;;4.50;;
66667;SDS011;57205;51.438;-2.006;2023-06-22T08:55:06;6.63;;;4.82;;
66667;SDS011;57205;51.438;-2.006;2023-06-22T08:57:32;9.88;;;5.10;;
66667;SDS011;57205;51.438;-2.006;2023-06-22T08:59:58;8.38;;;5.40;;
66667;SDS011;57205;51.438;-2.006;2023-06-22T09:02:27;6.70;;;3.67;;
66667;SDS011;57205;51.438;-2.006;2023-06-22T09:04:59;6.00;;;4.30;;
66667;SDS011;57205;51.438;-2.006;2023-06-22T09:07:28;11.93;;;5.68;;
66667;SDS011;57205;51.438;-2.006;2023-06-22T09:09:55;6.88;;;5.60;;
66667;SDS011;57205;51.438;-2.006;2023-06-22T09:12:21;6.65;;;4.10;;
66667;SDS011;57205;51.438;-2.006;2023-06-22T09:14:50;6.47;;;4.45;;
66667;SDS011;57205;51.438;-2.006;2023-06-22T09:17:16;5.90;;;4.25;;
66667;SDS011;57205;51.438;-2.006;2023-06-22T09:19:43;8.73;;;4.57;;
66667;SDS011;57205;51.438;-2.006;2023-06-22T09:22:08;5.55;;;3.83;;
66667;SDS011;57205;51.438;-2.006;2023-06-22T09:24:34;4.95;;;3.78;;
66667;SDS011;57205;51.438;-2.006;2023-06-22T09:26:59;5.30;;;4.20;;
66667;SDS011;57205;51.438;-2.006;2023-06-22T09:29:25;7.93;;;4.07;;
66667;SDS011;57205;51.438;-2.006;2023-06-22T09:31:50;7.55;;;3.70;;
66667;SDS011;57205;51.438;-2.006;2023-06-22T09:34:18;4.45;;;3.30;;
66667;SDS011;57205;51.438;-2.006;2023-06-22T09:36:45;6.60;;;4.07;;
66667;SDS011;57205;51.438;-2.006;2023-06-22T09:39:13;6.47;;;4.03;;
66667;SDS011;57205;51.438;-2.006;2023-06-22T09:41:38;6.22;;;4.38;;
66667;SDS011;57205;51.438;-2.006;2023-06-22T09:44:04;8.32;;;4.00;;
66667;SDS011;57205;51.438;-2.006;2023-06-22T09:46:29;7.50;;;4.85;;
66667;SDS011;57205;51.438;-2.006;2023-06-22T09:48:55;7.07;;;3.95;;
66667;SDS011;57205;51.438;-2.006;2023-06-22T09:51:20;6.88;;;3.58;;
66667;SDS011;57205;51.438;-2.006;2023-06-22T09:53:47;6.18;;;3.55;;
66667;SDS011;57205;51.438;-2.006;2023-06-22T09:56:12;5.18;;;3.05;;
66667;SDS011;57205;51.438;-2.006;2023-06-22T09:58:42;4.50;;;3.00;;
66667;SDS011;57205;51.438;-2.006;2023-06-22T10:01:08;6.75;;;3.28;;
66667;SDS011;57205;51.438;-2.006;2023-06-22T10:03:37;4.45;;;3.10;;
66667;SDS011;57205;51.438;-2.006;2023-06-22T10:06:03;5.22;;;2.78;;
66667;SDS011;57205;51.438;-2.006;2023-06-22T10:08:28;6.32;;;2.63;;
66667;SDS011;57205;51.438;-2.006;2023-06-22T10:10:54;5.10;;;2.70;;
66667;SDS011;57205;51.438;-2.006;2023-06-22T10:13:19;5.18;;;2.70;;
66667;SDS011;57205;51.438;-2.006;2023-06-22T10:15:45;4.18;;;2.30;;
66667;SDS011;57205;51.438;-2.006;2023-06-22T10:18:15;6.10;;;2.90;;
66667;SDS011;57205;51.438;-2.006;2023-06-22T10:20:41;4.15;;;2.80;;
66667;SDS011;57205;51.438;-2.006;2023-06-22T10:23:07;6.57;;;3.65;;
66667;SDS011;57205;51.438;-2.006;2023-06-22T10:25:32;5.03;;;2.47;;
66667;SDS011;57205;51.438;-2.006;2023-06-22T10:27:57;6.18;;;2.17;;
66667;SDS011;57205;51.438;-2.006;2023-06-22T10:30:23;5.63;;;2.55;;
66667;SDS011;57205;51.438;-2.006;2023-06-22T10:32:48;6.43;;;2.60;;
66667;SDS011;57205;51.438;-2.006;2023-06-22T10:35:14;3.97;;;2.50;;
66667;SDS011;57205;51.438;-2.006;2023-06-22T10:37:41;4.28;;;2.42;;
66667;SDS011;57205;51.438;-2.006;2023-06-22T10:40:14;5.78;;;2.65;;
66667;SDS011;57205;51.438;-2.006;2023-06-22T10:42:41;6.65;;;2.70;;
66667;SDS011;57205;51.438;-2.006;2023-06-22T10:45:06;5.57;;;2.30;;
66667;SDS011;57205;51.438;-2.006;2023-06-22T10:47:33;4.30;;;2.30;;
66667;SDS011;57205;51.438;-2.006;2023-06-22T10:49:59;4.28;;;2.90;;
66667;SDS011;57205;51.438;-2.006;2023-06-22T10:52:24;5.13;;;2.50;;
66667;SDS011;57205;51.438;-2.006;2023-06-22T10:54:49;6.13;;;2.67;;
66667;SDS011;57205;51.438;-2.006;2023-06-22T10:57:15;5.13;;;2.53;;
66667;SDS011;57205;51.438;-2.006;2023-06-22T10:59:40;4.22;;;2.42;;
66667;SDS011;57205;51.438;-2.006;2023-06-22T11:02:06;5.53;;;3.08;;
66667;SDS011;57205;51.438;-2.006;2023-06-22T11:04:31;6.03;;;3.15;;
66667;SDS011;57205;51.438;-2.006;2023-06-22T11:06:56;4.57;;;2.65;;
66667;SDS011;57205;51.438;-2.006;2023-06-22T11:09:22;4.97;;;2.90;;
66667;SDS011;57205;51.438;-2.006;2023-06-22T11:11:48;5.32;;;2.88;;
66667;SDS011;57205;51.438;-2.006;2023-06-22T11:14:16;5.65;;;2.65;;
66667;SDS011;57205;51.438;-2.006;2023-06-22T11:16:41;5.25;;;2.50;;
66667;SDS011;57205;51.438;-2.006;2023-06-22T11:19:07;5.20;;;2.60;;
66667;SDS011;57205;51.438;-2.006;2023-06-22T11:21:33;9.60;;;3.03;;
66667;SDS011;57205;51.438;-2.006;2023-06-22T11:24:01;5.07;;;3.22;;
66667;SDS011;57205;51.438;-2.006;2023-06-22T11:26:27;4.32;;;3.00;;
66667;SDS011;57205;51.438;-2.006;2023-06-22T11:28:53;4.97;;;3.03;;
66667;SDS011;57205;51.438;-2.006;2023-06-22T11:31:19;5.40;;;3.10;;
66667;SDS011;57205;51.438;-2.006;2023-06-22T11:33:44;4.63;;;3.15;;
66667;SDS011;57205;51.438;-2.006;2023-06-22T11:36:11;9.05;;;3.42;;
66667;SDS011;57205;51.438;-2.006;2023-06-22T11:38:37;8.68;;;3.75;;
66667;SDS011;57205;51.438;-2.006;2023-06-22T11:41:05;5.55;;;3.17;;
66667;SDS011;57205;51.438;-2.006;2023-06-22T11:43:31;7.82;;;3.03;;
66667;SDS011;57205;51.438;-2.006;2023-06-22T11:45:56;5.40;;;3.35;;
66667;SDS011;57205;51.438;-2.006;2023-06-22T11:48:23;6.40;;;3.17;;
66667;SDS011;57205;51.438;-2.006;2023-06-22T11:50:49;6.80;;;2.88;;
66667;SDS011;57205;51.438;-2.006;2023-06-22T11:53:14;5.18;;;2.75;;
66667;SDS011;57205;51.438;-2.006;2023-06-22T11:55:41;6.28;;;3.03;;
66667;SDS011;57205;51.438;-2.006;2023-06-22T11:58:07;5.20;;;3.05;;
66667;SDS011;57205;51.438;-2.006;2023-06-22T12:00:33;5.88;;;2.60;;
66667;SDS011;57205;51.438;-2.006;2023-06-22T12:02:58;6.97;;;3.85;;
66667;SDS011;57205;51.438;-2.006;2023-06-22T12:05:24;4.72;;;2.67;;
66667;SDS011;57205;51.438;-2.006;2023-06-22T12:07:49;5.55;;;3.10;;
66667;SDS011;57205;51.438;-2.006;2023-06-22T12:10:15;6.03;;;3.15;;
66667;SDS011;57205;51.438;-2.006;2023-06-22T12:12:41;7.07;;;2.90;;
66667;SDS011;57205;51.438;-2.006;2023-06-22T12:15:07;5.93;;;3.00;;
66667;SDS011;57205;51.438;-2.006;2023-06-22T12:17:36;5.95;;;3.25;;
66667;SDS011;57205;51.438;-2.006;2023-06-22T12:20:02;9.57;;;3.13;;
66667;SDS011;57205;51.438;-2.006;2023-06-22T12:22:30;6.30;;;3.08;;
66667;SDS011;57205;51.438;-2.006;2023-06-22T12:24:57;5.47;;;2.90;;
66667;SDS011;57205;51.438;-2.006;2023-06-22T12:27:22;5.05;;;2.88;;
66667;SDS011;57205;51.438;-2.006;2023-06-22T12:29:48;6.53;;;2.83;;
66667;SDS011;57205;51.438;-2.006;2023-06-22T12:32:13;4.63;;;2.90;;
66667;SDS011;57205;51.438;-2.006;2023-06-22T12:34:39;4.20;;;2.47;;
66667;SDS011;57205;51.438;-2.006;2023-06-22T12:37:06;7.50;;;3.10;;
66667;SDS011;57205;51.438;-2.006;2023-06-22T12:39:32;5.80;;;2.95;;
66667;SDS011;57205;51.438;-2.006;2023-06-22T12:41:57;5.15;;;2.90;;
66667;SDS011;57205;51.438;-2.006;2023-06-22T12:44:23;7.57;;;2.72;;
66667;SDS011;57205;51.438;-2.006;2023-06-22T12:46:48;5.25;;;2.58;;
66667;SDS011;57205;51.438;-2.006;2023-06-22T12:49:14;5.00;;;3.38;;
66667;SDS011;57205;51.438;-2.006;2023-06-22T12:51:40;5.03;;;2.70;;
66667;SDS011;57205;51.438;-2.006;2023-06-22T12:54:09;4.63;;;3.00;;
66667;SDS011;57205;51.438;-2.006;2023-06-22T12:56:35;5.82;;;2.75;;
66667;SDS011;57205;51.438;-2.006;2023-06-22T12:59:00;7.28;;;3.00;;
66667;SDS011;57205;51.438;-2.006;2023-06-22T13:01:30;4.13;;;2.78;;
66667;SDS011;57205;51.438;-2.006;2023-06-22T13:03:57;5.30;;;3.05;;
66667;SDS011;57205;51.438;-2.006;2023-06-22T13:06:23;5.28;;;2.55;;
66667;SDS011;57205;51.438;-2.006;2023-06-22T13:08:48;4.93;;;2.60;;
66667;SDS011;57205;51.438;-2.006;2023-06-22T13:11:13;4.65;;;2.67;;
66667;SDS011;57205;51.438;-2.006;2023-06-22T13:13:39;5.30;;;2.47;;
66667;SDS011;57205;51.438;-2.006;2023-06-22T13:16:05;6.53;;;2.50;;
66667;SDS011;57205;51.438;-2.006;2023-06-22T13:18:30;4.85;;;2.58;;
66667;SDS011;57205;51.438;-2.006;2023-06-22T13:20:55;5.05;;;2.90;;
66667;SDS011;57205;51.438;-2.006;2023-06-22T13:23:23;4.85;;;2.72;;
66667;SDS011;57205;51.438;-2.006;2023-06-22T13:25:48;5.18;;;2.70;;
66667;SDS011;57205;51.438;-2.006;2023-06-22T13:28:14;5.68;;;2.47;;
66667;SDS011;57205;51.438;-2.006;2023-06-22T13:30:41;5.20;;;2.80;;
66667;SDS011;57205;51.438;-2.006;2023-06-22T13:33:07;4.68;;;2.25;;
66667;SDS011;57205;51.438;-2.006;2023-06-22T13:35:32;4.80;;;2.67;;
66667;SDS011;57205;51.438;-2.006;2023-06-22T13:37:58;6.43;;;2.63;;
66667;SDS011;57205;51.438;-2.006;2023-06-22T13:40:23;4.43;;;2.42;;
66667;SDS011;57205;51.438;-2.006;2023-06-22T13:42:48;5.75;;;2.13;;
66667;SDS011;57205;51.438;-2.006;2023-06-22T13:45:14;4.43;;;2.22;;
66667;SDS011;57205;51.438;-2.006;2023-06-22T13:47:42;3.53;;;2.30;;
66667;SDS011;57205;51.438;-2.006;2023-06-22T13:50:08;4.22;;;2.17;;
66667;SDS011;57205;51.438;-2.006;2023-06-22T13:52:34;6.55;;;2.83;;
66667;SDS011;57205;51.438;-2.006;2023-06-22T13:54:59;8.25;;;2.47;;
66667;SDS011;57205;51.438;-2.006;2023-06-22T13:57:25;6.50;;;3.47;;
66667;SDS011;57205;51.438;-2.006;2023-06-22T13:59:50;6.03;;;2.50;;
66667;SDS011;57205;51.438;-2.006;2023-06-22T14:02:16;4.63;;;2.40;;
66667;SDS011;57205;51.438;-2.006;2023-06-22T14:04:41;5.38;;;2.33;;
66667;SDS011;57205;51.438;-2.006;2023-06-22T14:07:06;9.63;;;2.85;;
66667;SDS011;57205;51.438;-2.006;2023-06-22T14:09:32;3.88;;;1.83;;
66667;SDS011;57205;51.438;-2.006;2023-06-22T14:11:57;4.57;;;2.72;;
66667;SDS011;57205;51.438;-2.006;2023-06-22T14:14:23;5.35;;;2.50;;
66667;SDS011;57205;51.438;-2.006;2023-06-22T14:16:48;3.85;;;2.20;;
66667;SDS011;57205;51.438;-2.006;2023-06-22T14:19:16;10.52;;;4.90;;
66667;SDS011;57205;51.438;-2.006;2023-06-22T14:21:42;7.65;;;2.47;;
66667;SDS011;57205;51.438;-2.006;2023-06-22T14:24:08;5.40;;;2.40;;
66667;SDS011;57205;51.438;-2.006;2023-06-22T14:26:35;4.75;;;2.83;;
66667;SDS011;57205;51.438;-2.006;2023-06-22T14:29:00;4.57;;;2.42;;
66667;SDS011;57205;51.438;-2.006;2023-06-22T14:31:25;4.07;;;2.30;;
66667;SDS011;57205;51.438;-2.006;2023-06-22T14:33:51;10.05;;;3.08;;
66667;SDS011;57205;51.438;-2.006;2023-06-22T14:36:16;6.13;;;2.40;;